sensor_id;sensor_type;location;lat;lon;timestamp;P1;durP1;ratioP1;P2;durP2;ratioP2
11665;SDS011;5889;51.350;6.708;2023-09-30T00:00:13;17.07;;;6.50;;
11665;SDS011;5889;51.350;6.708;2023-09-30T00:02:40;15.77;;;6.60;;
11665;SDS011;5889;51.350;6.708;2023-09-30T00:05:07;13.13;;;6.20;;
11665;SDS011;5889;51.350;6.708;2023-09-30T00:07:35;12.60;;;6.73;;
11665;SDS011;5889;51.350;6.708;2023-09-30T00:10:02;13.73;;;6.53;;
11665;SDS011;5889;51.350;6.708;2023-09-30T00:12:31;16.27;;;6.80;;
11665;SDS011;5889;51.350;6.708;2023-09-30T00:14:57;15.23;;;6.83;;
11665;SDS011;5889;51.350;6.708;2023-09-30T00:17:24;14.40;;;6.73;;
11665;SDS011;5889;51.350;6.708;2023-09-30T00:19:51;19.40;;;7.53;;
11665;SDS011;5889;51.350;6.708;2023-09-30T00:22:18;21.37;;;7.63;;
11665;SDS011;5889;51.350;6.708;2023-09-30T00:24:45;17.60;;;6.63;;
11665;SDS011;5889;51.350;6.708;2023-09-30T00:27:12;17.73;;;6.37;;
11665;SDS011;5889;51.350;6.708;2023-09-30T00:29:40;16.27;;;6.67;;
11665;SDS011;5889;51.350;6.708;2023-09-30T00:32:07;16.00;;;6.57;;
11665;SDS011;5889;51.350;6.708;2023-09-30T00:34:34;11.23;;;5.37;;
11665;SDS011;5889;51.350;6.708;2023-09-30T00:37:02;14.57;;;5.90;;
11665;SDS011;5889;51.350;6.708;2023-09-30T00:39:29;14.07;;;6.27;;
11665;SDS011;5889;51.350;6.708;2023-09-30T00:41:56;15.47;;;6.50;;
11665;SDS011;5889;51.350;6.708;2023-09-30T00:44:24;18.60;;;6.37;;
11665;SDS011;5889;51.350;6.708;2023-09-30T00:46:53;14.10;;;6.50;;
11665;SDS011;5889;51.350;6.708;2023-09-30T00:49:21;18.80;;;6.70;;
11665;SDS011;5889;51.350;6.708;2023-09-30T00:51:49;13.70;;;6.27;;
11665;SDS011;5889;51.350;6.708;2023-09-30T00:54:18;16.93;;;6.50;;
11665;SDS011;5889;51.350;6.708;2023-09-30T00:56:46;20.40;;;6.80;;
11665;SDS011;5889;51.350;6.708;2023-09-30T00:59:13;16.70;;;6.77;;
11665;SDS011;5889;51.350;6.708;2023-09-30T01:01:40;16.07;;;6.33;;
11665;SDS011;5889;51.350;6.708;2023-09-30T01:04:10;13.70;;;6.17;;
11665;SDS011;5889;51.350;6.708;2023-09-30T01:06:38;13.63;;;6.63;;
11665;SDS011;5889;51.350;6.708;2023-09-30T01:09:05;14.13;;;6.00;;
11665;SDS011;5889;51.350;6.708;2023-09-30T01:11:32;14.40;;;6.83;;
11665;SDS011;5889;51.350;6.708;2023-09-30T01:13:59;14.33;;;6.60;;
11665;SDS011;5889;51.350;6.708;2023-09-30T01:16:26;15.37;;;7.10;;
11665;SDS011;5889;51.350;6.708;2023-09-30T01:18:53;17.23;;;7.17;;
11665;SDS011;5889;51.350;6.708;2023-09-30T01:21:21;17.63;;;6.97;;
11665;SDS011;5889;51.350;6.708;2023-09-30T01:23:51;15.83;;;6.70;;
11665;SDS011;5889;51.350;6.708;2023-09-30T01:26:18;19.63;;;6.77;;
11665;SDS011;5889;51.350;6.708;2023-09-30T01:28:45;17.77;;;6.83;;
11665;SDS011;5889;51.350;6.708;2023-09-30T01:31:13;15.50;;;6.40;;
11665;SDS011;5889;51.350;6.708;2023-09-30T01:33:40;14.40;;;6.20;;
11665;SDS011;5889;51.350;6.708;2023-09-30T01:36:07;17.40;;;6.47;;
11665;SDS011;5889;51.350;6.708;2023-09-30T01:38:34;14.73;;;6.57;;
11665;SDS011;5889;51.350;6.708;2023-09-30T01:41:03;20.23;;;7.53;;
11665;SDS011;5889;51.350;6.708;2023-09-30T01:43:30;18.83;;;6.90;;
11665;SDS011;5889;51.350;6.708;2023-09-30T01:45:57;18.83;;;6.57;;
11665;SDS011;5889;51.350;6.708;2023-09-30T01:48:24;14.33;;;7.13;;
11665;SDS011;5889;51.350;6.708;2023-09-30T01:50:50;19.90;;;6.47;;
11665;SDS011;5889;51.350;6.708;2023-09-30T01:53:17;16.93;;;7.27;;
11665;SDS011;5889;51.350;6.708;2023-09-30T01:55:44;14.10;;;6.37;;
11665;SDS011;5889;51.350;6.708;2023-09-30T01:58:14;11.67;;;6.10;;
11665;SDS011;5889;51.350;6.708;2023-09-30T02:00:41;18.00;;;6.77;;
11665;SDS011;5889;51.350;6.708;2023-09-30T02:03:08;15.93;;;6.40;;
11665;SDS011;5889;51.350;6.708;2023-09-30T02:05:37;16.83;;;7.00;;
11665;SDS011;5889;51.350;6.708;2023-09-30T02:08:05;20.10;;;6.67;;
11665;SDS011;5889;51.350;6.708;2023-09-30T02:10:32;16.03;;;6.33;;
11665;SDS011;5889;51.350;6.708;2023-09-30T02:12:59;14.13;;;6.60;;
11665;SDS011;5889;51.350;6.708;2023-09-30T02:15:27;11.90;;;6.07;;
11665;SDS011;5889;51.350;6.708;2023-09-30T02:17:54;15.73;;;6.47;;
11665;SDS011;5889;51.350;6.708;2023-09-30T02:20:22;15.70;;;5.73;;
11665;SDS011;5889;51.350;6.708;2023-09-30T02:22:51;19.77;;;6.60;;
11665;SDS011;5889;51.350;6.708;2023-09-30T02:25:19;15.17;;;6.27;;
11665;SDS011;5889;51.350;6.708;2023-09-30T02:27:46;14.13;;;5.87;;
11665;SDS011;5889;51.350;6.708;2023-09-30T02:30:14;16.07;;;5.67;;
11665;SDS011;5889;51.350;6.708;2023-09-30T02:32:43;10.90;;;6.00;;
11665;SDS011;5889;51.350;6.708;2023-09-30T02:35:11;12.77;;;6.30;;
11665;SDS011;5889;51.350;6.708;2023-09-30T02:37:40;15.73;;;6.00;;
11665;SDS011;5889;51.350;6.708;2023-09-30T02:40:07;19.37;;;6.70;;
11665;SDS011;5889;51.350;6.708;2023-09-30T02:42:35;16.63;;;6.30;;
11665;SDS011;5889;51.350;6.708;2023-09-30T02:45:03;14.33;;;5.53;;
11665;SDS011;5889;51.350;6.708;2023-09-30T02:47:30;12.93;;;5.47;;
11665;SDS011;5889;51.350;6.708;2023-09-30T02:49:59;15.37;;;6.37;;
11665;SDS011;5889;51.350;6.708;2023-09-30T02:52:26;12.27;;;5.33;;
11665;SDS011;5889;51.350;6.708;2023-09-30T02:54:54;10.13;;;5.80;;
11665;SDS011;5889;51.350;6.708;2023-09-30T02:57:22;14.17;;;5.87;;
11665;SDS011;5889;51.350;6.708;2023-09-30T02:59:49;14.07;;;5.83;;
11665;SDS011;5889;51.350;6.708;2023-09-30T03:02:17;11.10;;;5.37;;
11665;SDS011;5889;51.350;6.708;2023-09-30T03:04:44;11.13;;;5.37;;
11665;SDS011;5889;51.350;6.708;2023-09-30T03:07:13;13.27;;;5.73;;
11665;SDS011;5889;51.350;6.708;2023-09-30T03:09:40;14.70;;;5.40;;
11665;SDS011;5889;51.350;6.708;2023-09-30T03:12:07;14.57;;;5.73;;
11665;SDS011;5889;51.350;6.708;2023-09-30T03:14:34;14.77;;;5.60;;
11665;SDS011;5889;51.350;6.708;2023-09-30T03:17:01;15.23;;;5.63;;
11665;SDS011;5889;51.350;6.708;2023-09-30T03:19:29;12.47;;;5.40;;
11665;SDS011;5889;51.350;6.708;2023-09-30T03:21:56;11.73;;;5.00;;
11665;SDS011;5889;51.350;6.708;2023-09-30T03:24:24;11.43;;;5.57;;
11665;SDS011;5889;51.350;6.708;2023-09-30T03:26:52;12.93;;;5.53;;
11665;SDS011;5889;51.350;6.708;2023-09-30T03:29:19;11.67;;;5.30;;
11665;SDS011;5889;51.350;6.708;2023-09-30T03:31:46;10.13;;;5.00;;
11665;SDS011;5889;51.350;6.708;2023-09-30T03:34:13;12.93;;;5.30;;
11665;SDS011;5889;51.350;6.708;2023-09-30T03:36:41;11.40;;;5.10;;
11665;SDS011;5889;51.350;6.708;2023-09-30T03:39:09;11.93;;;5.27;;
11665;SDS011;5889;51.350;6.708;2023-09-30T03:41:41;11.23;;;5.20;;
11665;SDS011;5889;51.350;6.708;2023-09-30T03:44:09;13.83;;;5.33;;
11665;SDS011;5889;51.350;6.708;2023-09-30T03:46:36;9.80;;;4.83;;
11665;SDS011;5889;51.350;6.708;2023-09-30T03:49:03;13.10;;;5.10;;
11665;SDS011;5889;51.350;6.708;2023-09-30T03:51:30;13.77;;;6.20;;
11665;SDS011;5889;51.350;6.708;2023-09-30T03:53:57;13.97;;;6.07;;
11665;SDS011;5889;51.350;6.708;2023-09-30T03:56:24;14.53;;;6.00;;
11665;SDS011;5889;51.350;6.708;2023-09-30T03:58:52;17.13;;;5.83;;
11665;SDS011;5889;51.350;6.708;2023-09-30T04:01:19;10.47;;;5.00;;
11665;SDS011;5889;51.350;6.708;2023-09-30T04:03:46;19.17;;;6.73;;
11665;SDS011;5889;51.350;6.708;2023-09-30T04:06:13;13.27;;;6.17;;
11665;SDS011;5889;51.350;6.708;2023-09-30T04:08:40;13.53;;;5.03;;
11665;SDS011;5889;51.350;6.708;2023-09-30T04:11:08;14.87;;;5.40;;
11665;SDS011;5889;51.350;6.708;2023-09-30T04:13:41;13.63;;;6.10;;
11665;SDS011;5889;51.350;6.708;2023-09-30T04:16:10;15.57;;;5.17;;
11665;SDS011;5889;51.350;6.708;2023-09-30T04:18:37;12.23;;;5.73;;
11665;SDS011;5889;51.350;6.708;2023-09-30T04:21:05;13.17;;;5.63;;
11665;SDS011;5889;51.350;6.708;2023-09-30T04:23:33;14.63;;;5.43;;
11665;SDS011;5889;51.350;6.708;2023-09-30T04:26:01;14.00;;;5.20;;
11665;SDS011;5889;51.350;6.708;2023-09-30T04:28:30;15.07;;;5.17;;
11665;SDS011;5889;51.350;6.708;2023-09-30T04:30:59;12.90;;;5.03;;
11665;SDS011;5889;51.350;6.708;2023-09-30T04:33:29;12.97;;;5.90;;
11665;SDS011;5889;51.350;6.708;2023-09-30T04:35:56;11.40;;;5.20;;
11665;SDS011;5889;51.350;6.708;2023-09-30T04:38:23;12.03;;;4.87;;
11665;SDS011;5889;51.350;6.708;2023-09-30T04:40:51;15.63;;;5.20;;
11665;SDS011;5889;51.350;6.708;2023-09-30T04:43:19;15.93;;;4.83;;
11665;SDS011;5889;51.350;6.708;2023-09-30T04:45:46;11.90;;;4.90;;
11665;SDS011;5889;51.350;6.708;2023-09-30T04:48:15;16.07;;;4.90;;
11665;SDS011;5889;51.350;6.708;2023-09-30T04:50:43;11.83;;;5.87;;
11665;SDS011;5889;51.350;6.708;2023-09-30T04:53:10;10.33;;;5.13;;
11665;SDS011;5889;51.350;6.708;2023-09-30T04:55:38;12.50;;;5.27;;
11665;SDS011;5889;51.350;6.708;2023-09-30T04:58:04;11.53;;;5.33;;
11665;SDS011;5889;51.350;6.708;2023-09-30T05:00:31;15.10;;;6.23;;
11665;SDS011;5889;51.350;6.708;2023-09-30T05:03:00;13.53;;;6.40;;
11665;SDS011;5889;51.350;6.708;2023-09-30T05:05:27;15.40;;;6.50;;
11665;SDS011;5889;51.350;6.708;2023-09-30T05:07:56;16.03;;;6.40;;
11665;SDS011;5889;51.350;6.708;2023-09-30T05:10:24;17.17;;;6.40;;
11665;SDS011;5889;51.350;6.708;2023-09-30T05:12:51;15.00;;;5.87;;
11665;SDS011;5889;51.350;6.708;2023-09-30T05:15:20;13.17;;;5.60;;
11665;SDS011;5889;51.350;6.708;2023-09-30T05:17:48;12.93;;;5.90;;
11665;SDS011;5889;51.350;6.708;2023-09-30T05:20:15;11.47;;;5.37;;
11665;SDS011;5889;51.350;6.708;2023-09-30T05:22:43;13.00;;;5.40;;
11665;SDS011;5889;51.350;6.708;2023-09-30T05:25:12;14.47;;;6.43;;
11665;SDS011;5889;51.350;6.708;2023-09-30T05:27:41;12.87;;;6.03;;
11665;SDS011;5889;51.350;6.708;2023-09-30T05:30:08;13.07;;;6.27;;
11665;SDS011;5889;51.350;6.708;2023-09-30T05:32:36;14.43;;;5.93;;
11665;SDS011;5889;51.350;6.708;2023-09-30T05:35:04;16.10;;;6.57;;
11665;SDS011;5889;51.350;6.708;2023-09-30T05:37:37;17.07;;;7.20;;
11665;SDS011;5889;51.350;6.708;2023-09-30T05:40:05;17.33;;;6.30;;
11665;SDS011;5889;51.350;6.708;2023-09-30T05:42:43;17.10;;;7.27;;
11665;SDS011;5889;51.350;6.708;2023-09-30T05:45:10;13.70;;;6.57;;
11665;SDS011;5889;51.350;6.708;2023-09-30T05:47:37;18.23;;;6.60;;
11665;SDS011;5889;51.350;6.708;2023-09-30T05:50:06;12.67;;;6.57;;
11665;SDS011;5889;51.350;6.708;2023-09-30T05:52:34;18.10;;;7.47;;
11665;SDS011;5889;51.350;6.708;2023-09-30T05:55:02;14.90;;;7.13;;
11665;SDS011;5889;51.350;6.708;2023-09-30T05:57:29;13.40;;;6.87;;
11665;SDS011;5889;51.350;6.708;2023-09-30T05:59:58;12.83;;;6.70;;
11665;SDS011;5889;51.350;6.708;2023-09-30T06:02:25;18.67;;;7.50;;
11665;SDS011;5889;51.350;6.708;2023-09-30T06:04:51;16.57;;;7.53;;
11665;SDS011;5889;51.350;6.708;2023-09-30T06:07:19;15.67;;;7.40;;
11665;SDS011;5889;51.350;6.708;2023-09-30T06:09:49;15.97;;;6.93;;
11665;SDS011;5889;51.350;6.708;2023-09-30T06:12:16;14.33;;;6.73;;
11665;SDS011;5889;51.350;6.708;2023-09-30T06:14:44;16.23;;;7.67;;
11665;SDS011;5889;51.350;6.708;2023-09-30T06:17:12;14.77;;;7.53;;
11665;SDS011;5889;51.350;6.708;2023-09-30T06:19:39;23.07;;;8.37;;
11665;SDS011;5889;51.350;6.708;2023-09-30T06:22:06;16.07;;;7.10;;
11665;SDS011;5889;51.350;6.708;2023-09-30T06:24:33;21.33;;;7.90;;
11665;SDS011;5889;51.350;6.708;2023-09-30T06:27:01;13.10;;;6.40;;
11665;SDS011;5889;51.350;6.708;2023-09-30T06:29:28;19.30;;;8.37;;
11665;SDS011;5889;51.350;6.708;2023-09-30T06:31:55;17.13;;;8.07;;
11665;SDS011;5889;51.350;6.708;2023-09-30T06:34:24;18.27;;;7.00;;
11665;SDS011;5889;51.350;6.708;2023-09-30T06:36:51;17.10;;;8.57;;
11665;SDS011;5889;51.350;6.708;2023-09-30T06:39:18;17.30;;;7.80;;
11665;SDS011;5889;51.350;6.708;2023-09-30T06:41:46;19.37;;;8.83;;
11665;SDS011;5889;51.350;6.708;2023-09-30T06:44:13;18.87;;;8.03;;
11665;SDS011;5889;51.350;6.708;2023-09-30T06:46:40;10.40;;;6.27;;
11665;SDS011;5889;51.350;6.708;2023-09-30T06:49:07;15.50;;;7.60;;
11665;SDS011;5889;51.350;6.708;2023-09-30T06:51:37;14.60;;;7.00;;
11665;SDS011;5889;51.350;6.708;2023-09-30T06:54:04;15.03;;;6.70;;
11665;SDS011;5889;51.350;6.708;2023-09-30T06:56:33;16.00;;;7.33;;
11665;SDS011;5889;51.350;6.708;2023-09-30T06:59:00;17.93;;;8.37;;
11665;SDS011;5889;51.350;6.708;2023-09-30T07:01:27;20.00;;;8.90;;
11665;SDS011;5889;51.350;6.708;2023-09-30T07:03:54;19.13;;;9.20;;
11665;SDS011;5889;51.350;6.708;2023-09-30T07:06:22;17.43;;;8.17;;
11665;SDS011;5889;51.350;6.708;2023-09-30T07:08:51;20.77;;;10.03;;
11665;SDS011;5889;51.350;6.708;2023-09-30T07:11:26;22.20;;;10.40;;
11665;SDS011;5889;51.350;6.708;2023-09-30T07:13:53;20.07;;;10.10;;
11665;SDS011;5889;51.350;6.708;2023-09-30T07:16:20;25.57;;;11.17;;
11665;SDS011;5889;51.350;6.708;2023-09-30T07:18:47;26.27;;;11.93;;
11665;SDS011;5889;51.350;6.708;2023-09-30T07:21:15;24.90;;;11.87;;
11665;SDS011;5889;51.350;6.708;2023-09-30T07:23:42;24.47;;;11.40;;
11665;SDS011;5889;51.350;6.708;2023-09-30T07:26:11;25.57;;;10.97;;
11665;SDS011;5889;51.350;6.708;2023-09-30T07:28:38;29.23;;;12.00;;
11665;SDS011;5889;51.350;6.708;2023-09-30T07:31:05;26.77;;;13.10;;
11665;SDS011;5889;51.350;6.708;2023-09-30T07:33:31;24.73;;;11.00;;
11665;SDS011;5889;51.350;6.708;2023-09-30T07:35:58;24.43;;;11.00;;
11665;SDS011;5889;51.350;6.708;2023-09-30T07:38:25;24.77;;;12.17;;
11665;SDS011;5889;51.350;6.708;2023-09-30T07:40:52;20.90;;;12.43;;
11665;SDS011;5889;51.350;6.708;2023-09-30T07:43:20;19.80;;;10.57;;
11665;SDS011;5889;51.350;6.708;2023-09-30T07:45:47;24.83;;;10.97;;
11665;SDS011;5889;51.350;6.708;2023-09-30T07:48:14;26.43;;;13.87;;
11665;SDS011;5889;51.350;6.708;2023-09-30T07:50:41;27.23;;;13.13;;
11665;SDS011;5889;51.350;6.708;2023-09-30T07:53:08;26.50;;;13.23;;
11665;SDS011;5889;51.350;6.708;2023-09-30T07:55:37;33.67;;;15.17;;
11665;SDS011;5889;51.350;6.708;2023-09-30T07:58:04;34.67;;;16.13;;
11665;SDS011;5889;51.350;6.708;2023-09-30T08:00:34;38.20;;;15.53;;
11665;SDS011;5889;51.350;6.708;2023-09-30T08:03:01;32.03;;;17.47;;
11665;SDS011;5889;51.350;6.708;2023-09-30T08:05:29;30.13;;;16.40;;
11665;SDS011;5889;51.350;6.708;2023-09-30T08:07:56;35.20;;;16.80;;
11665;SDS011;5889;51.350;6.708;2023-09-30T08:10:23;29.87;;;16.47;;
11665;SDS011;5889;51.350;6.708;2023-09-30T08:12:50;29.10;;;16.57;;
11665;SDS011;5889;51.350;6.708;2023-09-30T08:15:18;40.73;;;18.80;;
11665;SDS011;5889;51.350;6.708;2023-09-30T08:17:46;34.43;;;18.97;;
11665;SDS011;5889;51.350;6.708;2023-09-30T08:20:13;31.67;;;17.87;;
11665;SDS011;5889;51.350;6.708;2023-09-30T08:22:40;33.63;;;17.20;;
11665;SDS011;5889;51.350;6.708;2023-09-30T08:25:07;33.90;;;17.13;;
11665;SDS011;5889;51.350;6.708;2023-09-30T08:27:36;31.80;;;17.07;;
11665;SDS011;5889;51.350;6.708;2023-09-30T08:30:04;31.83;;;16.77;;
11665;SDS011;5889;51.350;6.708;2023-09-30T08:32:34;27.20;;;15.67;;
11665;SDS011;5889;51.350;6.708;2023-09-30T08:35:02;32.17;;;17.97;;
11665;SDS011;5889;51.350;6.708;2023-09-30T08:37:30;28.03;;;16.50;;
11665;SDS011;5889;51.350;6.708;2023-09-30T08:39:57;35.73;;;17.83;;
11665;SDS011;5889;51.350;6.708;2023-09-30T08:42:25;28.60;;;16.17;;
11665;SDS011;5889;51.350;6.708;2023-09-30T08:44:56;29.60;;;17.40;;
11665;SDS011;5889;51.350;6.708;2023-09-30T08:47:24;25.73;;;16.00;;
11665;SDS011;5889;51.350;6.708;2023-09-30T08:49:53;27.17;;;15.57;;
11665;SDS011;5889;51.350;6.708;2023-09-30T08:52:24;29.47;;;17.80;;
11665;SDS011;5889;51.350;6.708;2023-09-30T08:54:53;29.17;;;15.33;;
11665;SDS011;5889;51.350;6.708;2023-09-30T08:57:23;24.80;;;16.17;;
11665;SDS011;5889;51.350;6.708;2023-09-30T08:59:51;26.70;;;16.23;;
11665;SDS011;5889;51.350;6.708;2023-09-30T09:02:19;27.43;;;14.30;;
11665;SDS011;5889;51.350;6.708;2023-09-30T09:04:46;25.92;;;14.73;;
11665;SDS011;5889;51.350;6.708;2023-09-30T09:07:14;28.37;;;15.00;;
11665;SDS011;5889;51.350;6.708;2023-09-30T09:09:42;24.98;;;13.70;;
11665;SDS011;5889;51.350;6.708;2023-09-30T09:12:29;29.08;;;13.73;;
11665;SDS011;5889;51.350;6.708;2023-09-30T09:14:56;22.58;;;13.18;;
11665;SDS011;5889;51.350;6.708;2023-09-30T09:17:23;25.13;;;14.55;;
11665;SDS011;5889;51.350;6.708;2023-09-30T09:19:58;24.98;;;13.52;;
11665;SDS011;5889;51.350;6.708;2023-09-30T09:22:37;26.35;;;13.57;;
11665;SDS011;5889;51.350;6.708;2023-09-30T09:25:06;18.00;;;10.73;;
11665;SDS011;5889;51.350;6.708;2023-09-30T09:27:34;30.25;;;13.13;;
11665;SDS011;5889;51.350;6.708;2023-09-30T09:35:35;21.48;;;12.20;;
11665;SDS011;5889;51.350;6.708;2023-09-30T09:38:03;21.70;;;12.13;;
11665;SDS011;5889;51.350;6.708;2023-09-30T09:40:32;20.90;;;10.48;;
11665;SDS011;5889;51.350;6.708;2023-09-30T09:43:00;16.15;;;10.77;;
11665;SDS011;5889;51.350;6.708;2023-09-30T09:45:30;17.42;;;10.68;;
11665;SDS011;5889;51.350;6.708;2023-09-30T09:47:59;19.63;;;10.10;;
11665;SDS011;5889;51.350;6.708;2023-09-30T09:50:26;16.45;;;9.43;;
11665;SDS011;5889;51.350;6.708;2023-09-30T09:52:54;10.43;;;7.03;;
11665;SDS011;5889;51.350;6.708;2023-09-30T09:55:24;12.13;;;7.43;;
11665;SDS011;5889;51.350;6.708;2023-09-30T09:57:53;12.65;;;7.53;;
11665;SDS011;5889;51.350;6.708;2023-09-30T10:00:21;13.27;;;6.47;;
11665;SDS011;5889;51.350;6.708;2023-09-30T10:02:49;12.10;;;6.05;;
11665;SDS011;5889;51.350;6.708;2023-09-30T10:05:17;12.32;;;6.20;;
11665;SDS011;5889;51.350;6.708;2023-09-30T10:07:47;11.50;;;6.90;;
11665;SDS011;5889;51.350;6.708;2023-09-30T10:10:20;10.55;;;5.72;;
11665;SDS011;5889;51.350;6.708;2023-09-30T10:12:49;13.50;;;5.93;;
11665;SDS011;5889;51.350;6.708;2023-09-30T10:15:39;13.10;;;7.03;;
11665;SDS011;5889;51.350;6.708;2023-09-30T10:18:06;12.55;;;6.85;;
11665;SDS011;5889;51.350;6.708;2023-09-30T10:20:35;10.32;;;5.15;;
11665;SDS011;5889;51.350;6.708;2023-09-30T10:25:52;10.57;;;5.60;;
11665;SDS011;5889;51.350;6.708;2023-09-30T10:28:35;9.73;;;5.60;;
11665;SDS011;5889;51.350;6.708;2023-09-30T10:31:08;11.38;;;5.63;;
11665;SDS011;5889;51.350;6.708;2023-09-30T10:33:41;13.35;;;7.00;;
11665;SDS011;5889;51.350;6.708;2023-09-30T10:36:47;12.73;;;5.40;;
11665;SDS011;5889;51.350;6.708;2023-09-30T10:51:01;9.30;;;5.15;;
11665;SDS011;5889;51.350;6.708;2023-09-30T10:53:40;10.50;;;4.88;;
11665;SDS011;5889;51.350;6.708;2023-09-30T10:56:09;11.75;;;5.43;;
11665;SDS011;5889;51.350;6.708;2023-09-30T10:58:39;10.13;;;5.07;;
11665;SDS011;5889;51.350;6.708;2023-09-30T11:01:10;10.68;;;4.85;;
11665;SDS011;5889;51.350;6.708;2023-09-30T11:03:39;12.27;;;5.05;;
11665;SDS011;5889;51.350;6.708;2023-09-30T11:06:06;10.35;;;4.80;;
11665;SDS011;5889;51.350;6.708;2023-09-30T11:08:34;9.02;;;4.80;;
11665;SDS011;5889;51.350;6.708;2023-09-30T11:11:03;12.10;;;4.95;;
11665;SDS011;5889;51.350;6.708;2023-09-30T11:13:33;7.78;;;3.70;;
11665;SDS011;5889;51.350;6.708;2023-09-30T11:16:01;10.10;;;4.30;;
11665;SDS011;5889;51.350;6.708;2023-09-30T11:18:30;10.15;;;3.83;;
11665;SDS011;5889;51.350;6.708;2023-09-30T11:21:05;11.60;;;3.55;;
11665;SDS011;5889;51.350;6.708;2023-09-30T11:23:34;8.05;;;3.72;;
11665;SDS011;5889;51.350;6.708;2023-09-30T11:26:02;9.05;;;4.22;;
11665;SDS011;5889;51.350;6.708;2023-09-30T11:28:39;12.23;;;4.20;;
11665;SDS011;5889;51.350;6.708;2023-09-30T11:31:07;10.30;;;3.80;;
11665;SDS011;5889;51.350;6.708;2023-09-30T11:33:49;8.68;;;3.50;;
11665;SDS011;5889;51.350;6.708;2023-09-30T11:36:19;8.55;;;3.38;;
11665;SDS011;5889;51.350;6.708;2023-09-30T11:38:47;9.48;;;4.18;;
11665;SDS011;5889;51.350;6.708;2023-09-30T11:41:16;8.48;;;3.50;;
11665;SDS011;5889;51.350;6.708;2023-09-30T11:43:59;10.30;;;4.00;;
11665;SDS011;5889;51.350;6.708;2023-09-30T11:46:29;7.07;;;3.72;;
11665;SDS011;5889;51.350;6.708;2023-09-30T11:48:59;7.15;;;3.40;;
11665;SDS011;5889;51.350;6.708;2023-09-30T11:51:29;9.85;;;4.32;;
11665;SDS011;5889;51.350;6.708;2023-09-30T11:53:56;7.25;;;3.80;;
11665;SDS011;5889;51.350;6.708;2023-09-30T11:56:24;8.85;;;4.13;;
11665;SDS011;5889;51.350;6.708;2023-09-30T11:58:54;10.18;;;3.53;;
11665;SDS011;5889;51.350;6.708;2023-09-30T12:01:22;6.30;;;3.10;;
11665;SDS011;5889;51.350;6.708;2023-09-30T12:03:50;6.03;;;2.50;;
11665;SDS011;5889;51.350;6.708;2023-09-30T12:06:18;9.60;;;3.70;;
11665;SDS011;5889;51.350;6.708;2023-09-30T12:08:46;9.55;;;4.28;;
11665;SDS011;5889;51.350;6.708;2023-09-30T12:11:14;8.85;;;3.88;;
11665;SDS011;5889;51.350;6.708;2023-09-30T12:13:41;8.65;;;3.78;;
11665;SDS011;5889;51.350;6.708;2023-09-30T12:16:09;8.20;;;3.85;;
11665;SDS011;5889;51.350;6.708;2023-09-30T12:18:38;7.80;;;3.58;;
11665;SDS011;5889;51.350;6.708;2023-09-30T12:21:06;8.43;;;3.38;;
11665;SDS011;5889;51.350;6.708;2023-09-30T12:23:34;7.57;;;3.83;;
11665;SDS011;5889;51.350;6.708;2023-09-30T12:26:03;10.80;;;3.85;;
11665;SDS011;5889;51.350;6.708;2023-09-30T12:28:33;8.38;;;4.40;;
11665;SDS011;5889;51.350;6.708;2023-09-30T12:31:00;8.65;;;2.92;;
11665;SDS011;5889;51.350;6.708;2023-09-30T12:33:28;7.60;;;3.45;;
11665;SDS011;5889;51.350;6.708;2023-09-30T12:35:55;5.60;;;2.97;;
11665;SDS011;5889;51.350;6.708;2023-09-30T12:38:22;7.85;;;3.22;;
11665;SDS011;5889;51.350;6.708;2023-09-30T12:40:50;8.55;;;3.97;;
11665;SDS011;5889;51.350;6.708;2023-09-30T12:43:19;12.35;;;3.67;;
11665;SDS011;5889;51.350;6.708;2023-09-30T12:45:45;8.18;;;4.28;;
11665;SDS011;5889;51.350;6.708;2023-09-30T12:48:13;8.32;;;4.15;;
11665;SDS011;5889;51.350;6.708;2023-09-30T12:50:40;10.52;;;3.83;;
11665;SDS011;5889;51.350;6.708;2023-09-30T12:53:07;10.88;;;4.32;;
11665;SDS011;5889;51.350;6.708;2023-09-30T12:55:35;9.43;;;4.93;;
11665;SDS011;5889;51.350;6.708;2023-09-30T12:58:02;10.30;;;3.60;;
11665;SDS011;5889;51.350;6.708;2023-09-30T13:00:30;7.20;;;3.80;;
11665;SDS011;5889;51.350;6.708;2023-09-30T13:02:58;6.75;;;2.78;;
11665;SDS011;5889;51.350;6.708;2023-09-30T13:05:26;6.85;;;2.88;;
11665;SDS011;5889;51.350;6.708;2023-09-30T13:07:54;6.90;;;2.67;;
11665;SDS011;5889;51.350;6.708;2023-09-30T13:10:22;6.68;;;4.03;;
11665;SDS011;5889;51.350;6.708;2023-09-30T13:12:49;7.53;;;3.40;;
11665;SDS011;5889;51.350;6.708;2023-09-30T13:15:17;6.65;;;3.85;;
11665;SDS011;5889;51.350;6.708;2023-09-30T13:17:46;7.57;;;4.00;;
11665;SDS011;5889;51.350;6.708;2023-09-30T13:20:12;6.47;;;3.58;;
11665;SDS011;5889;51.350;6.708;2023-09-30T13:22:39;9.93;;;3.55;;
11665;SDS011;5889;51.350;6.708;2023-09-30T13:25:07;9.88;;;3.15;;
11665;SDS011;5889;51.350;6.708;2023-09-30T13:27:37;5.82;;;3.40;;
11665;SDS011;5889;51.350;6.708;2023-09-30T13:30:05;6.65;;;3.40;;
11665;SDS011;5889;51.350;6.708;2023-09-30T13:32:33;9.00;;;3.72;;
11665;SDS011;5889;51.350;6.708;2023-09-30T13:35:02;8.93;;;3.20;;
11665;SDS011;5889;51.350;6.708;2023-09-30T13:37:30;5.68;;;3.35;;
11665;SDS011;5889;51.350;6.708;2023-09-30T13:39:58;4.88;;;2.92;;
11665;SDS011;5889;51.350;6.708;2023-09-30T13:42:26;7.20;;;3.58;;
11665;SDS011;5889;51.350;6.708;2023-09-30T13:44:53;7.13;;;3.13;;
11665;SDS011;5889;51.350;6.708;2023-09-30T13:47:22;7.55;;;3.10;;
11665;SDS011;5889;51.350;6.708;2023-09-30T13:49:50;4.88;;;3.03;;
11665;SDS011;5889;51.350;6.708;2023-09-30T13:52:18;9.23;;;3.70;;
11665;SDS011;5889;51.350;6.708;2023-09-30T13:54:45;5.60;;;3.00;;
11665;SDS011;5889;51.350;6.708;2023-09-30T13:57:12;5.03;;;2.75;;
11665;SDS011;5889;51.350;6.708;2023-09-30T13:59:40;7.25;;;3.25;;
11665;SDS011;5889;51.350;6.708;2023-09-30T14:02:08;6.20;;;3.17;;
11665;SDS011;5889;51.350;6.708;2023-09-30T14:04:35;10.30;;;4.60;;
11665;SDS011;5889;51.350;6.708;2023-09-30T14:07:02;7.40;;;4.13;;
11665;SDS011;5889;51.350;6.708;2023-09-30T14:09:31;9.10;;;4.55;;
11665;SDS011;5889;51.350;6.708;2023-09-30T14:11:58;6.53;;;3.53;;
11665;SDS011;5889;51.350;6.708;2023-09-30T14:14:26;7.63;;;3.58;;
11665;SDS011;5889;51.350;6.708;2023-09-30T14:16:53;6.25;;;3.60;;
11665;SDS011;5889;51.350;6.708;2023-09-30T14:19:21;7.68;;;3.55;;
11665;SDS011;5889;51.350;6.708;2023-09-30T14:21:48;6.20;;;3.47;;
11665;SDS011;5889;51.350;6.708;2023-09-30T14:24:15;6.82;;;3.70;;
11665;SDS011;5889;51.350;6.708;2023-09-30T14:26:44;7.40;;;3.58;;
11665;SDS011;5889;51.350;6.708;2023-09-30T14:29:11;9.35;;;4.03;;
11665;SDS011;5889;51.350;6.708;2023-09-30T14:31:38;8.32;;;4.30;;
11665;SDS011;5889;51.350;6.708;2023-09-30T14:34:06;9.52;;;4.20;;
11665;SDS011;5889;51.350;6.708;2023-09-30T14:36:33;7.32;;;3.75;;
11665;SDS011;5889;51.350;6.708;2023-09-30T14:39:00;8.00;;;3.83;;
11665;SDS011;5889;51.350;6.708;2023-09-30T14:41:27;5.53;;;3.70;;
11665;SDS011;5889;51.350;6.708;2023-09-30T14:43:55;6.82;;;3.50;;
11665;SDS011;5889;51.350;6.708;2023-09-30T14:46:22;9.63;;;4.20;;
11665;SDS011;5889;51.350;6.708;2023-09-30T14:48:49;8.90;;;3.85;;
11665;SDS011;5889;51.350;6.708;2023-09-30T14:51:16;6.88;;;3.90;;
11665;SDS011;5889;51.350;6.708;2023-09-30T14:53:46;6.32;;;3.85;;
11665;SDS011;5889;51.350;6.708;2023-09-30T14:56:16;8.60;;;4.00;;
11665;SDS011;5889;51.350;6.708;2023-09-30T14:58:44;7.32;;;3.97;;
11665;SDS011;5889;51.350;6.708;2023-09-30T15:01:13;9.27;;;3.85;;
11665;SDS011;5889;51.350;6.708;2023-09-30T15:03:39;8.07;;;3.45;;
11665;SDS011;5889;51.350;6.708;2023-09-30T15:06:08;7.63;;;3.65;;
11665;SDS011;5889;51.350;6.708;2023-09-30T15:08:40;6.65;;;4.03;;
11665;SDS011;5889;51.350;6.708;2023-09-30T15:11:12;6.82;;;3.47;;
11665;SDS011;5889;51.350;6.708;2023-09-30T15:13:40;6.55;;;3.20;;